createdAt,value
2018-12-05T00:00:15.332Z,36.14
2018-12-05T00:02:44.345Z,36.37
2018-12-05T00:05:13.405Z,36.22
2018-12-05T00:07:42.446Z,36.27
2018-12-05T00:10:11.605Z,36.70
2018-12-05T00:12:40.622Z,36.87
2018-12-05T00:15:09.816Z,36.49
2018-12-05T00:17:38.835Z,36.27
2018-12-05T00:20:08.035Z,35.96
2018-12-05T00:22:37.014Z,36.65
2018-12-05T00:25:06.316Z,36.21
2018-12-05T00:27:35.415Z,36.54
2018-12-05T00:30:04.793Z,36.68
2018-12-05T00:32:33.826Z,36.49
2018-12-05T00:35:02.803Z,36.46
2018-12-05T00:37:31.923Z,36.69
2018-12-05T00:40:01.191Z,36.76
2018-12-05T00:42:30.212Z,36.78
2018-12-05T00:44:59.215Z,36.27
2018-12-05T00:47:28.317Z,36.55
2018-12-05T00:49:57.468Z,36.10
2018-12-05T00:52:26.504Z,35.99
2018-12-05T00:54:55.691Z,35.83
2018-12-05T00:57:24.815Z,36.17
2018-12-05T00:59:53.797Z,36.20
2018-12-05T01:02:23.039Z,36.34
2018-12-05T01:04:52.028Z,36.30
2018-12-05T01:07:21.211Z,36.56
2018-12-05T01:09:50.311Z,36.25
2018-12-05T01:12:19.305Z,36.22
2018-12-05T01:14:48.379Z,35.96
2018-12-05T01:17:17.475Z,36.37
2018-12-05T01:19:46.422Z,36.07
2018-12-05T01:22:15.459Z,36.63
2018-12-05T01:24:44.537Z,35.98
2018-12-05T01:27:13.729Z,35.89
2018-12-05T01:29:42.884Z,35.61
2018-12-05T01:32:11.814Z,35.36
2018-12-05T01:34:40.925Z,36.05
2018-12-05T01:37:09.908Z,35.98
2018-12-05T01:39:38.918Z,36.20
2018-12-05T01:42:08.026Z,35.84
2018-12-05T01:44:37.019Z,36.14
2018-12-05T01:47:06.124Z,36.36
2018-12-05T01:49:35.200Z,35.79
2018-12-05T01:52:04.310Z,36.21
2018-12-05T01:54:33.295Z,35.91
2018-12-05T01:57:02.291Z,35.86
2018-12-05T01:59:31.491Z,35.85
2018-12-05T02:02:00.565Z,35.34
2018-12-05T02:04:29.533Z,35.22
2018-12-05T02:06:58.576Z,35.79
2018-12-05T02:09:27.559Z,35.49
2018-12-05T02:11:56.640Z,35.82
2018-12-05T02:14:25.657Z,35.69
2018-12-05T02:16:54.792Z,36.69
2018-12-05T02:19:23.849Z,35.56
2018-12-05T02:21:52.928Z,35.54
2018-12-05T02:24:22.140Z,35.82
2018-12-05T02:26:51.293Z,34.55
2018-12-05T02:29:20.491Z,34.61
2018-12-05T02:31:49.532Z,34.97
2018-12-05T02:34:18.641Z,34.33
2018-12-05T02:36:47.612Z,34.97
2018-12-05T02:39:16.613Z,34.78
2018-12-05T02:41:45.708Z,35.21
2018-12-05T02:44:14.804Z,34.86
2018-12-05T02:46:43.904Z,35.20
2018-12-05T02:49:12.995Z,35.63
2018-12-05T02:51:42.064Z,35.52
2018-12-05T02:54:11.180Z,35.95
2018-12-05T02:56:40.287Z,35.36
2018-12-05T02:59:09.396Z,35.20
2018-12-05T03:01:38.369Z,34.96
2018-12-05T03:04:07.372Z,34.63
2018-12-05T03:06:36.499Z,35.07
2018-12-05T03:09:08.037Z,35.15
2018-12-05T03:11:37.028Z,34.78
2018-12-05T03:14:06.107Z,35.30
2018-12-05T03:16:35.229Z,35.72
2018-12-05T03:19:04.191Z,35.66
2018-12-05T03:21:33.261Z,36.08
2018-12-05T03:24:02.204Z,35.58
2018-12-05T03:26:31.172Z,35.61
2018-12-05T03:29:00.269Z,35.22
2018-12-05T03:31:29.284Z,35.09
2018-12-05T03:33:58.372Z,34.71
2018-12-05T03:36:27.464Z,35.26
2018-12-05T03:38:56.549Z,34.75
2018-12-05T03:41:25.590Z,35.09
2018-12-05T03:43:54.588Z,35.21
2018-12-05T03:46:23.659Z,34.56
2018-12-05T03:48:52.754Z,34.57
2018-12-05T03:51:21.874Z,35.00
2018-12-05T03:53:50.848Z,34.73
2018-12-05T03:56:19.872Z,34.82
2018-12-05T03:58:49.043Z,35.09
2018-12-05T04:01:18.154Z,34.95
2018-12-05T04:03:47.080Z,35.10
2018-12-05T04:06:16.105Z,34.65
2018-12-05T04:08:45.195Z,34.41
2018-12-05T04:11:14.339Z,34.75
2018-12-05T04:13:43.406Z,35.00
2018-12-05T04:16:12.399Z,35.19
2018-12-05T04:18:41.528Z,34.62
2018-12-05T04:21:10.597Z,34.98
2018-12-05T04:23:39.713Z,34.80
2018-12-05T04:26:08.792Z,34.39
2018-12-05T04:28:37.799Z,35.03
2018-12-05T04:31:06.775Z,34.51
2018-12-05T04:33:35.884Z,34.35
2018-12-05T04:36:04.748Z,35.00
2018-12-05T04:38:33.853Z,34.64
2018-12-05T04:41:02.839Z,34.42
2018-12-05T04:43:31.840Z,34.38
2018-12-05T04:46:00.932Z,34.15
2018-12-05T04:48:30.079Z,34.33
2018-12-05T04:50:59.142Z,34.97
2018-12-05T04:53:28.146Z,34.47
2018-12-05T04:55:57.242Z,34.46
2018-12-05T04:58:26.331Z,34.84
2018-12-05T05:00:55.487Z,34.61
2018-12-05T05:03:24.551Z,34.25
2018-12-05T05:05:53.522Z,34.37
2018-12-05T05:08:22.727Z,34.24
2018-12-05T05:10:51.779Z,34.51
2018-12-05T05:13:20.847Z,34.27
2018-12-05T05:15:49.779Z,34.97
2018-12-05T05:18:18.784Z,34.62
2018-12-05T05:20:48.040Z,35.00
2018-12-05T05:23:17.003Z,34.94
2018-12-05T05:25:46.269Z,35.33
2018-12-05T05:28:15.280Z,34.99
2018-12-05T05:30:44.364Z,35.41
2018-12-05T05:33:13.368Z,34.99
2018-12-05T05:35:42.365Z,34.43
2018-12-05T05:38:11.348Z,34.26
2018-12-05T05:40:40.352Z,34.70
2018-12-05T05:43:09.376Z,34.69
2018-12-05T05:45:38.457Z,34.67
2018-12-05T05:48:07.550Z,34.61
2018-12-05T05:50:36.739Z,35.06
2018-12-05T05:53:05.850Z,34.71
2018-12-05T05:55:34.830Z,34.68
2018-12-05T05:58:03.832Z,34.45
2018-12-05T06:00:32.880Z,34.37
2018-12-05T06:03:01.819Z,33.24
2018-12-05T06:05:30.788Z,33.55
2018-12-05T06:07:59.839Z,32.07
2018-12-05T06:10:28.896Z,31.69
2018-12-05T06:12:57.976Z,32.46
2018-12-05T06:15:27.281Z,33.40
2018-12-05T06:17:56.237Z,33.48
2018-12-05T06:20:25.276Z,33.67
2018-12-05T06:22:54.259Z,33.84
2018-12-05T06:25:23.275Z,33.53
2018-12-05T06:27:52.164Z,33.85
2018-12-05T06:30:21.273Z,32.86
2018-12-05T06:32:50.252Z,32.55
2018-12-05T06:35:19.365Z,30.26
2018-12-05T06:37:48.362Z,30.32
2018-12-05T06:40:17.435Z,32.31
2018-12-05T06:42:46.525Z,32.68
2018-12-05T06:45:15.627Z,31.90
2018-12-05T06:47:44.620Z,29.40
2018-12-05T06:50:13.625Z,29.69
2018-12-05T06:52:42.620Z,30.50
2018-12-05T06:55:11.785Z,31.33
2018-12-05T06:57:41.012Z,31.41
2018-12-05T07:00:10.113Z,31.81
2018-12-05T07:02:39.214Z,31.58
2018-12-05T07:05:08.200Z,31.96
2018-12-05T07:07:37.321Z,31.83
2018-12-05T07:10:06.780Z,31.84
2018-12-05T07:12:35.895Z,32.36
2018-12-05T07:15:04.902Z,32.49
2018-12-05T07:17:33.897Z,32.18
2018-12-05T07:20:02.882Z,31.49
2018-12-05T07:22:31.890Z,32.02
2018-12-05T07:25:00.909Z,32.15
2018-12-05T07:27:30.032Z,32.50
2018-12-05T07:29:59.905Z,32.31
2018-12-05T07:32:29.055Z,32.32
2018-12-05T07:34:58.112Z,32.07
2018-12-05T07:37:27.074Z,32.21
2018-12-05T07:39:56.181Z,31.94
2018-12-05T07:42:25.269Z,32.43
2018-12-05T07:44:54.369Z,32.01
2018-12-05T07:47:23.226Z,32.30
2018-12-05T07:49:52.247Z,31.75
2018-12-05T07:52:21.342Z,31.98
2018-12-05T07:54:50.472Z,32.00
2018-12-05T07:57:19.436Z,31.79
2018-12-05T07:59:48.531Z,31.63
2018-12-05T08:02:17.577Z,31.78
2018-12-05T08:04:46.723Z,32.51
2018-12-05T08:07:15.923Z,32.01
2018-12-05T08:09:45.004Z,30.86
2018-12-05T08:12:14.107Z,31.03
2018-12-05T08:14:43.406Z,27.33
2018-12-05T08:17:12.489Z,29.18
2018-12-05T08:19:41.638Z,27.99
2018-12-05T08:22:10.808Z,28.92
2018-12-05T08:24:39.956Z,26.82
2018-12-05T08:27:09.462Z,26.72
2018-12-05T08:29:38.589Z,26.88
2018-12-05T08:32:07.660Z,28.92
2018-12-05T08:34:36.852Z,29.08
2018-12-05T08:37:05.988Z,29.03
2018-12-05T08:39:35.214Z,28.52
2018-12-05T08:42:04.318Z,25.78
2018-12-05T08:44:33.303Z,26.76
2018-12-05T08:47:02.615Z,27.90
2018-12-05T08:49:31.739Z,28.47
2018-12-05T08:52:00.797Z,29.23
2018-12-05T08:54:29.886Z,29.44
2018-12-05T08:56:58.936Z,29.49
2018-12-05T08:59:27.951Z,29.38
2018-12-05T09:01:57.053Z,29.31
2018-12-05T09:04:26.064Z,29.68
2018-12-05T09:06:55.169Z,29.75
2018-12-05T09:09:24.146Z,29.86
2018-12-05T09:11:53.494Z,29.86
2018-12-05T09:14:28.627Z,29.96
2018-12-05T09:16:53.491Z,30.44
2018-12-05T09:19:22.490Z,30.37
2018-12-05T09:21:51.471Z,30.50
2018-12-05T09:24:20.472Z,30.56
2018-12-05T09:26:49.449Z,30.45
2018-12-05T09:29:18.499Z,30.62
2018-12-05T09:31:47.456Z,30.40
2018-12-05T09:34:16.545Z,30.35
2018-12-05T09:36:45.646Z,30.60
2018-12-05T09:39:14.629Z,30.52
2018-12-05T09:41:43.607Z,30.41
2018-12-05T09:44:12.640Z,30.74
2018-12-05T09:46:41.623Z,31.46
2018-12-05T09:49:10.823Z,31.63
2018-12-05T09:51:39.943Z,31.60
2018-12-05T09:54:08.915Z,31.60
2018-12-05T09:56:38.027Z,31.05
2018-12-05T09:59:06.830Z,31.62
2018-12-05T10:01:35.867Z,31.03
2018-12-05T10:04:05.095Z,31.57
2018-12-05T10:06:34.289Z,31.19
2018-12-05T10:09:04.354Z,31.23
2018-12-05T10:11:33.409Z,31.26
2018-12-05T10:14:02.730Z,31.12
2018-12-05T10:16:31.996Z,31.11
2018-12-05T10:19:01.112Z,31.64
2018-12-05T10:21:30.380Z,31.47
2018-12-05T10:23:59.556Z,31.71
2018-12-05T10:26:28.595Z,31.06
2018-12-05T10:28:57.812Z,31.17
2018-12-05T10:31:27.036Z,31.31
2018-12-05T10:33:56.201Z,31.56
2018-12-05T10:36:25.286Z,31.62
2018-12-05T10:38:54.272Z,31.87
2018-12-05T10:41:23.473Z,31.88
2018-12-05T10:43:52.579Z,31.98
2018-12-05T10:46:21.661Z,31.84
2018-12-05T10:48:50.771Z,32.32
2018-12-05T10:51:20.024Z,31.16
2018-12-05T10:53:49.062Z,32.53
2018-12-05T10:56:18.093Z,33.46
2018-12-05T10:58:47.144Z,33.58
2018-12-05T11:01:21.090Z,33.48
2018-12-05T11:03:50.117Z,34.16
2018-12-05T11:06:24.156Z,34.21
2018-12-05T11:08:58.248Z,34.59
2018-12-05T11:11:32.472Z,34.78
2018-12-05T11:14:06.512Z,34.25
2018-12-05T11:16:40.449Z,35.42
2018-12-05T11:19:14.640Z,35.50
2018-12-05T11:21:49.779Z,35.33
2018-12-05T11:24:24.113Z,35.69
2018-12-05T11:26:53.270Z,35.84
2018-12-05T11:29:22.280Z,36.13
2018-12-05T11:31:51.272Z,36.27
2018-12-05T11:34:20.412Z,37.10
2018-12-05T11:36:50.300Z,36.39
2018-12-05T11:39:19.413Z,36.45
2018-12-05T11:41:48.500Z,36.92
2018-12-05T11:44:17.502Z,37.58
2018-12-05T11:46:46.552Z,37.35
2018-12-05T11:49:15.547Z,37.87
2018-12-05T11:51:44.657Z,37.34
2018-12-05T11:54:13.760Z,37.50
2018-12-05T11:56:42.904Z,37.16
2018-12-05T11:59:12.009Z,37.29
2018-12-05T12:01:41.129Z,37.66
2018-12-05T12:04:10.262Z,37.68
2018-12-05T12:06:39.236Z,37.76
2018-12-05T12:09:09.660Z,37.76
2018-12-05T12:11:38.859Z,37.86
2018-12-05T12:14:08.004Z,38.02
2018-12-05T12:16:37.077Z,38.11
2018-12-05T12:19:06.068Z,38.42
2018-12-05T12:21:35.073Z,38.94
2018-12-05T12:24:04.128Z,38.67
2018-12-05T12:26:33.506Z,38.21
2018-12-05T12:29:02.661Z,37.89
2018-12-05T12:31:31.698Z,38.11
2018-12-05T12:34:00.883Z,39.01
2018-12-05T12:36:29.952Z,38.98
2018-12-05T12:38:59.158Z,38.50
2018-12-05T12:41:28.564Z,38.00
2018-12-05T12:43:57.900Z,38.35
2018-12-05T12:46:27.189Z,38.77
2018-12-05T12:48:56.324Z,38.75
2018-12-05T12:51:26.483Z,38.58
2018-12-05T12:53:55.601Z,38.47
2018-12-05T12:56:24.792Z,38.24
2018-12-05T12:58:54.796Z,38.49
2018-12-05T13:01:24.349Z,38.32
2018-12-05T13:03:53.477Z,38.94
2018-12-05T13:06:22.668Z,38.63
2018-12-05T13:08:52.621Z,41.15
2018-12-05T13:11:21.621Z,40.01
2018-12-05T13:13:50.536Z,40.09
2018-12-05T13:16:20.784Z,40.43
2018-12-05T13:18:49.957Z,39.24
2018-12-05T13:21:18.889Z,40.54
2018-12-05T13:23:47.992Z,41.10
2018-12-05T13:26:17.007Z,39.88
2018-12-05T13:28:46.063Z,39.70
2018-12-05T13:31:15.151Z,40.08
2018-12-05T13:33:44.235Z,40.64
2018-12-05T13:36:13.401Z,41.44
2018-12-05T13:38:42.622Z,42.89
2018-12-05T13:41:11.779Z,40.56
2018-12-05T13:43:40.830Z,39.19
2018-12-05T13:46:09.980Z,38.43
2018-12-05T13:48:38.971Z,39.62
2018-12-05T13:51:08.920Z,41.63
2018-12-05T13:53:39.069Z,42.82
2018-12-05T13:56:08.245Z,42.54
2018-12-05T13:58:37.215Z,41.93
2018-12-05T14:01:06.396Z,41.28
2018-12-05T14:03:35.635Z,38.74
2018-12-05T14:06:04.783Z,41.77
2018-12-05T14:08:33.804Z,41.89
2018-12-05T14:11:03.889Z,42.08
2018-12-05T14:13:33.209Z,41.85
2018-12-05T14:16:02.588Z,39.25
2018-12-05T14:18:31.628Z,39.19
2018-12-05T14:21:00.677Z,39.75
2018-12-05T14:23:29.699Z,41.27
2018-12-05T14:25:58.856Z,40.56
2018-12-05T14:28:27.879Z,40.48
2018-12-05T14:30:57.029Z,37.93
2018-12-05T14:33:25.854Z,37.33
2018-12-05T14:35:55.566Z,39.11
2018-12-05T14:38:24.995Z,39.45
2018-12-05T14:40:54.289Z,41.14
2018-12-05T14:43:23.576Z,40.93
2018-12-05T14:45:52.578Z,40.27
2018-12-05T14:48:21.652Z,38.20
2018-12-05T14:50:50.767Z,40.14
2018-12-05T14:53:19.997Z,41.14
2018-12-05T14:55:49.088Z,40.19
2018-12-05T14:58:18.117Z,40.34
2018-12-05T15:00:47.271Z,37.44
2018-12-05T15:03:16.392Z,36.81
2018-12-05T15:05:45.647Z,36.18
2018-12-05T15:08:14.827Z,36.56
2018-12-05T15:10:44.067Z,36.92
2018-12-05T15:13:13.179Z,39.37
2018-12-05T15:15:42.261Z,37.38
2018-12-05T15:18:11.368Z,37.71
2018-12-05T15:20:40.555Z,37.66
2018-12-05T15:23:09.964Z,36.45
2018-12-05T15:25:39.060Z,35.99
2018-12-05T15:28:08.239Z,39.27
2018-12-05T15:30:37.440Z,39.63
2018-12-05T15:33:06.604Z,38.33
2018-12-05T15:35:35.625Z,36.92
2018-12-05T15:38:04.645Z,36.90
2018-12-05T15:40:34.666Z,37.57
2018-12-05T15:43:03.813Z,39.41
2018-12-05T15:45:33.215Z,40.80
2018-12-05T15:48:02.451Z,40.32
2018-12-05T15:50:31.574Z,37.78
2018-12-05T15:53:00.552Z,38.88
2018-12-05T15:55:29.848Z,38.69
2018-12-05T15:57:58.951Z,38.95
2018-12-05T16:00:28.218Z,40.88
2018-12-05T16:02:57.452Z,41.15
2018-12-05T16:05:26.544Z,38.89
2018-12-05T16:07:55.686Z,38.88
2018-12-05T16:10:24.740Z,39.13
2018-12-05T16:12:53.732Z,39.31
2018-12-05T16:15:22.772Z,38.23
2018-12-05T16:17:51.960Z,38.61
2018-12-05T16:20:20.987Z,40.67
2018-12-05T16:22:50.107Z,39.38
2018-12-05T16:25:19.818Z,40.89
2018-12-05T16:27:48.932Z,39.04
2018-12-05T16:30:18.125Z,39.55
2018-12-05T16:32:47.354Z,42.27
2018-12-05T16:35:17.383Z,42.39
2018-12-05T16:37:46.397Z,41.66
2018-12-05T16:40:16.660Z,40.61
2018-12-05T16:42:45.412Z,39.21
2018-12-05T16:45:14.448Z,40.18
2018-12-05T16:47:43.655Z,40.02
2018-12-05T16:50:12.944Z,41.86
2018-12-05T16:52:41.934Z,43.11
2018-12-05T16:55:11.032Z,42.77
2018-12-05T16:57:40.225Z,42.82
2018-12-05T17:00:11.046Z,41.13
2018-12-05T17:02:40.262Z,40.86
2018-12-05T17:05:09.463Z,40.53
2018-12-05T17:07:38.449Z,42.83
2018-12-05T17:10:07.864Z,40.19
2018-12-05T17:12:37.140Z,41.95
2018-12-05T17:15:06.205Z,41.16
2018-12-05T17:17:35.392Z,35.01
2018-12-05T17:20:04.336Z,33.21
2018-12-05T17:22:33.436Z,37.93
2018-12-05T17:25:02.481Z,38.92
2018-12-05T17:27:31.452Z,38.65
2018-12-05T17:30:00.639Z,37.20
2018-12-05T17:32:29.641Z,38.79
2018-12-05T17:34:58.751Z,37.97
2018-12-05T17:37:27.861Z,37.93
2018-12-05T17:39:57.084Z,38.04
2018-12-05T17:42:26.285Z,37.46
2018-12-05T17:44:55.355Z,38.09
2018-12-05T17:47:24.415Z,38.10
2018-12-05T17:49:53.706Z,37.74
2018-12-05T17:52:22.907Z,38.15
2018-12-05T17:54:52.013Z,37.47
2018-12-05T17:57:21.112Z,37.82
2018-12-05T17:59:50.126Z,37.53
2018-12-05T18:02:19.084Z,37.65
2018-12-05T18:04:48.077Z,37.25
2018-12-05T18:07:17.074Z,37.67
2018-12-05T18:09:46.164Z,37.53
2018-12-05T18:12:15.204Z,37.37
2018-12-05T18:14:44.256Z,37.37
2018-12-05T18:17:13.352Z,37.00
2018-12-05T18:19:42.376Z,37.47
2018-12-05T18:22:11.436Z,37.24
2018-12-05T18:24:40.600Z,36.85
2018-12-05T18:27:09.664Z,36.80
2018-12-05T18:29:38.843Z,36.86
2018-12-05T18:32:07.943Z,37.04
2018-12-05T18:34:36.945Z,37.08
2018-12-05T18:37:06.096Z,36.69
2018-12-05T18:39:35.152Z,36.46
2018-12-05T18:42:04.133Z,36.63
2018-12-05T18:44:33.112Z,36.09
2018-12-05T18:47:02.100Z,36.46
2018-12-05T18:49:31.198Z,36.48
2018-12-05T18:52:00.137Z,36.11
2018-12-05T18:54:29.204Z,35.99
2018-12-05T18:56:58.195Z,36.45
2018-12-05T18:59:27.220Z,35.87
2018-12-05T19:01:56.726Z,35.82
2018-12-05T19:04:25.844Z,35.56
2018-12-05T19:06:55.020Z,35.44
2018-12-05T19:09:26.943Z,35.63
2018-12-05T19:23:28.729Z,36.39
2018-12-05T19:25:57.864Z,36.54
2018-12-05T19:28:27.093Z,36.08
2018-12-05T19:30:56.115Z,36.06
2018-12-05T19:33:25.280Z,35.82
2018-12-05T19:35:54.616Z,35.58
2018-12-05T19:38:23.585Z,35.77
2018-12-05T19:40:52.660Z,35.63
2018-12-05T19:43:21.785Z,35.71
2018-12-05T19:45:51.197Z,35.66
2018-12-05T19:48:21.967Z,35.49
2018-12-05T19:50:50.939Z,35.07
2018-12-05T19:53:19.871Z,34.68
2018-12-05T19:55:49.004Z,34.34
2018-12-05T19:58:18.135Z,34.88
2018-12-05T20:00:47.456Z,34.92
2018-12-05T20:03:16.522Z,34.64
2018-12-05T20:05:45.748Z,34.69
2018-12-05T20:08:14.918Z,34.01
2018-12-05T20:10:44.117Z,34.09
2018-12-05T20:13:13.205Z,34.67
2018-12-05T20:15:42.305Z,34.26
2018-12-05T20:18:11.545Z,34.80
2018-12-05T20:20:40.792Z,34.16
2018-12-05T20:23:09.968Z,34.40
2018-12-05T20:25:39.180Z,34.47
2018-12-05T20:28:08.365Z,34.40
2018-12-05T20:30:37.484Z,34.39
2018-12-05T20:33:06.672Z,34.64
2018-12-05T20:35:36.026Z,34.63
2018-12-05T20:38:05.145Z,34.52
2018-12-05T20:40:34.848Z,34.39
2018-12-05T20:43:03.979Z,34.24
2018-12-05T20:45:33.084Z,34.26
2018-12-05T20:48:02.168Z,34.19
2018-12-05T20:50:31.273Z,34.25
2018-12-05T20:53:00.366Z,34.34
2018-12-05T20:55:29.467Z,34.32
2018-12-05T20:57:58.489Z,33.79
2018-12-05T21:00:27.548Z,34.05
2018-12-05T21:02:56.543Z,34.11
2018-12-05T21:05:25.531Z,34.66
2018-12-05T21:07:54.608Z,34.23
2018-12-05T21:10:23.641Z,34.74
2018-12-05T21:12:52.608Z,34.18
2018-12-05T21:15:21.755Z,34.49
2018-12-05T21:17:50.743Z,34.25
2018-12-05T21:20:19.708Z,34.82
2018-12-05T21:22:48.707Z,34.60
2018-12-05T21:25:17.708Z,34.81
2018-12-05T21:27:46.900Z,34.54
2018-12-05T21:30:16.000Z,34.38
2018-12-05T21:32:44.942Z,34.44
2018-12-05T21:35:13.923Z,35.00
2018-12-05T21:37:42.934Z,34.27
2018-12-05T21:40:11.923Z,34.48
2018-12-05T21:42:41.197Z,34.86
2018-12-05T21:45:10.171Z,34.63
2018-12-05T21:47:39.240Z,34.20
2018-12-05T21:50:08.336Z,34.85
2018-12-05T21:52:37.479Z,34.79
2018-12-05T21:55:06.996Z,34.62
2018-12-05T21:57:35.968Z,34.51
2018-12-05T22:00:06.412Z,34.65
2018-12-05T22:02:35.353Z,34.25
2018-12-05T22:05:04.443Z,34.22
2018-12-05T22:07:33.449Z,34.76
2018-12-05T22:10:02.559Z,34.70
2018-12-05T22:12:31.652Z,34.24
2018-12-05T22:15:00.745Z,34.59
2018-12-05T22:17:29.737Z,34.71
2018-12-05T22:19:58.840Z,34.23
2018-12-05T22:22:27.836Z,34.56
2018-12-05T22:24:57.131Z,34.26
2018-12-05T22:27:26.239Z,34.29
2018-12-05T22:29:55.231Z,34.88
2018-12-05T22:32:24.321Z,34.50
2018-12-05T22:34:53.438Z,34.75
2018-12-05T22:37:22.616Z,34.62
2018-12-05T22:39:51.720Z,34.99
2018-12-05T22:42:20.666Z,35.03
2018-12-05T22:44:49.760Z,35.05
2018-12-05T22:47:18.795Z,35.08
2018-12-05T22:49:47.876Z,35.02
2018-12-05T22:52:16.972Z,35.00
2018-12-05T22:54:45.985Z,35.33
2018-12-05T22:57:15.983Z,34.97
2018-12-05T22:59:45.100Z,34.69
2018-12-05T23:02:14.416Z,35.31
2018-12-05T23:04:43.502Z,34.92
2018-12-05T23:07:12.519Z,35.04
2018-12-05T23:09:41.488Z,34.77
2018-12-05T23:12:10.547Z,35.15
2018-12-05T23:14:39.564Z,35.42
2018-12-05T23:17:08.652Z,34.91
2018-12-05T23:19:37.672Z,35.02
2018-12-05T23:22:06.640Z,35.50
2018-12-05T23:24:35.753Z,35.04
2018-12-05T23:27:04.747Z,35.86
2018-12-05T23:29:33.758Z,35.56
2018-12-05T23:32:02.842Z,35.57
2018-12-05T23:34:31.945Z,34.87
2018-12-05T23:37:00.933Z,35.15
2018-12-05T23:39:30.069Z,35.06
2018-12-05T23:41:59.028Z,35.09
2018-12-05T23:44:44.172Z,35.63
2018-12-05T23:47:13.202Z,35.21
2018-12-05T23:49:42.216Z,35.33
2018-12-05T23:52:11.388Z,35.63
2018-12-05T23:54:40.380Z,35.32
2018-12-05T23:57:09.330Z,35.23
2018-12-05T23:59:38.362Z,36.13
